3I7 weather

Dayton-Phillipsburg Airport
Phillipsburg, Ohio, United States

Public forecast

Using degrees Fahrenheit for public forecast. Weather courtesy of forecast.io.

Closest aviation weather report (METAR) to Dayton-Phillipsburg Airport

Closest report is James M Cox Dayton International Airport, 8.4 nm (15.5 km) E. Retrieved 2020/06/04 12:56 UTC (39 minutes ago):

KDAY 041256Z 17005KT 10SM SCT039 BKN100 BKN180 24/19 A2986 RMK AO2 SLP102 T02390194

Closest aviation forecast (TAF) to Dayton-Phillipsburg Airport

Closest forecast is James M Cox Dayton International Airport, 8.4 nm (15.5 km) E. Retrieved 2020/06/04 12:24 UTC (1 hour ago):

TAF KDAY 041121Z 0412/0512 19005KT P6SM SCT040 BKN080 FM041400 21007KT P6SM VCSH BKN080 FM041600 22010KT P6SM BKN080 FM041900 22010KT P6SM VCTS BKN050CB FM042200 21009KT P6SM BKN060 FM050200 22005KT P6SM BKN120